Airport View

Enter AWOS ICAO identifier for current METAR.

ex. KFNL

PAMR 251053Z 31005KT 10SM OVC070 03/M02 A3018 RMK AO2 SLP223 T00281022 $

25 Oct 2020 11:15

Phone: 907-272-0542

Other Area AWOS: PAED - PALH - PANC - PAFR

TAF PAED 251000Z 2510/2616 32010KT 9999 FEW035 BKN070 520006 QNH3011INS BECMG 2515/2516 VRB06KT 9999 VCSH FEW020 BKN050 510052 QNH3004INS BECMG 2517/2518 VRB06KT 9000 -RA SCT020 BKN040 510052 QNH2982INS BECMG 2601/2602 VRB06KT 9000 -RASN BKN002 BKN015 620159 QNH2930INS BECMG 2608/2609 VRB06KT 4800 -SN OVC002 QNH2920INS TX02/2522Z TN00/2515Z